sensor_id;sensor_type;location;lat;lon;timestamp;P1;durP1;ratioP1;P2;durP2;ratioP2
76729;SDS011;65653;53.106;18.046;2023-06-26T00:01:02;4.60;;;3.00;;
76729;SDS011;65653;53.106;18.046;2023-06-26T00:03:48;6.00;;;3.20;;
76729;SDS011;65653;53.106;18.046;2023-06-26T00:06:14;5.30;;;3.20;;
76729;SDS011;65653;53.106;18.046;2023-06-26T00:08:41;6.20;;;3.40;;
76729;SDS011;65653;53.106;18.046;2023-06-26T00:11:07;5.50;;;3.20;;
76729;SDS011;65653;53.106;18.046;2023-06-26T00:13:34;4.70;;;3.50;;
76729;SDS011;65653;53.106;18.046;2023-06-26T00:16:00;5.00;;;3.50;;
76729;SDS011;65653;53.106;18.046;2023-06-26T00:18:29;5.90;;;3.60;;
76729;SDS011;65653;53.106;18.046;2023-06-26T00:20:55;5.90;;;3.40;;
76729;SDS011;65653;53.106;18.046;2023-06-26T00:23:22;3.80;;;3.30;;
76729;SDS011;65653;53.106;18.046;2023-06-26T00:25:48;5.30;;;3.50;;
76729;SDS011;65653;53.106;18.046;2023-06-26T00:28:15;6.40;;;3.60;;
76729;SDS011;65653;53.106;18.046;2023-06-26T00:30:41;4.40;;;3.60;;
76729;SDS011;65653;53.106;18.046;2023-06-26T00:33:08;5.80;;;3.50;;
76729;SDS011;65653;53.106;18.046;2023-06-26T00:35:34;5.50;;;3.60;;
76729;SDS011;65653;53.106;18.046;2023-06-26T00:38:01;5.70;;;3.80;;
76729;SDS011;65653;53.106;18.046;2023-06-26T00:40:28;5.70;;;3.80;;
76729;SDS011;65653;53.106;18.046;2023-06-26T00:42:54;5.40;;;3.50;;
76729;SDS011;65653;53.106;18.046;2023-06-26T00:45:21;5.50;;;3.70;;
76729;SDS011;65653;53.106;18.046;2023-06-26T00:47:48;5.10;;;3.60;;
76729;SDS011;65653;53.106;18.046;2023-06-26T00:50:15;6.00;;;3.80;;
76729;SDS011;65653;53.106;18.046;2023-06-26T00:52:43;9.60;;;3.80;;
76729;SDS011;65653;53.106;18.046;2023-06-26T00:55:10;6.40;;;3.90;;
76729;SDS011;65653;53.106;18.046;2023-06-26T00:57:37;5.80;;;3.40;;
76729;SDS011;65653;53.106;18.046;2023-06-26T01:00:04;5.70;;;3.70;;
76729;SDS011;65653;53.106;18.046;2023-06-26T01:02:31;8.00;;;4.10;;
76729;SDS011;65653;53.106;18.046;2023-06-26T01:05:01;7.40;;;4.60;;
76729;SDS011;65653;53.106;18.046;2023-06-26T01:07:33;5.80;;;3.70;;
76729;SDS011;65653;53.106;18.046;2023-06-26T01:10:05;7.30;;;3.80;;
76729;SDS011;65653;53.106;18.046;2023-06-26T01:12:33;4.70;;;3.30;;
76729;SDS011;65653;53.106;18.046;2023-06-26T01:15:00;6.50;;;3.90;;
76729;SDS011;65653;53.106;18.046;2023-06-26T01:17:27;6.60;;;4.00;;
76729;SDS011;65653;53.106;18.046;2023-06-26T01:20:00;5.50;;;3.40;;
76729;SDS011;65653;53.106;18.046;2023-06-26T01:22:43;5.10;;;3.40;;
76729;SDS011;65653;53.106;18.046;2023-06-26T01:25:47;4.60;;;3.80;;
76729;SDS011;65653;53.106;18.046;2023-06-26T01:31:24;6.70;;;3.40;;
76729;SDS011;65653;53.106;18.046;2023-06-26T01:33:53;5.90;;;3.60;;
76729;SDS011;65653;53.106;18.046;2023-06-26T01:36:21;6.00;;;3.90;;
76729;SDS011;65653;53.106;18.046;2023-06-26T01:38:49;8.10;;;4.10;;
76729;SDS011;65653;53.106;18.046;2023-06-26T01:41:17;6.20;;;3.70;;
76729;SDS011;65653;53.106;18.046;2023-06-26T01:46:39;6.40;;;3.90;;
76729;SDS011;65653;53.106;18.046;2023-06-26T01:49:25;7.70;;;3.90;;
76729;SDS011;65653;53.106;18.046;2023-06-26T01:52:11;6.80;;;4.30;;
76729;SDS011;65653;53.106;18.046;2023-06-26T01:54:52;5.80;;;4.40;;
76729;SDS011;65653;53.106;18.046;2023-06-26T01:57:29;5.30;;;4.10;;
76729;SDS011;65653;53.106;18.046;2023-06-26T01:59:57;7.50;;;4.40;;
76729;SDS011;65653;53.106;18.046;2023-06-26T02:02:25;5.90;;;4.10;;
76729;SDS011;65653;53.106;18.046;2023-06-26T02:04:52;7.20;;;4.50;;
76729;SDS011;65653;53.106;18.046;2023-06-26T02:07:18;8.10;;;4.80;;
76729;SDS011;65653;53.106;18.046;2023-06-26T02:09:45;5.90;;;4.20;;
76729;SDS011;65653;53.106;18.046;2023-06-26T02:12:11;7.50;;;4.90;;
76729;SDS011;65653;53.106;18.046;2023-06-26T02:14:38;7.00;;;4.60;;
76729;SDS011;65653;53.106;18.046;2023-06-26T02:17:05;6.30;;;4.70;;
76729;SDS011;65653;53.106;18.046;2023-06-26T02:19:31;5.50;;;4.00;;
76729;SDS011;65653;53.106;18.046;2023-06-26T02:21:58;7.20;;;4.80;;
76729;SDS011;65653;53.106;18.046;2023-06-26T02:24:24;7.70;;;4.60;;
76729;SDS011;65653;53.106;18.046;2023-06-26T02:26:53;7.50;;;4.60;;
76729;SDS011;65653;53.106;18.046;2023-06-26T02:29:20;12.20;;;5.00;;
76729;SDS011;65653;53.106;18.046;2023-06-26T02:31:46;6.10;;;4.00;;
76729;SDS011;65653;53.106;18.046;2023-06-26T02:34:13;6.50;;;4.60;;
76729;SDS011;65653;53.106;18.046;2023-06-26T02:36:40;7.10;;;4.40;;
76729;SDS011;65653;53.106;18.046;2023-06-26T02:39:06;5.70;;;4.30;;
76729;SDS011;65653;53.106;18.046;2023-06-26T02:41:33;7.50;;;4.60;;
76729;SDS011;65653;53.106;18.046;2023-06-26T02:44:00;7.10;;;4.70;;
76729;SDS011;65653;53.106;18.046;2023-06-26T02:46:26;8.00;;;4.70;;
76729;SDS011;65653;53.106;18.046;2023-06-26T02:48:53;8.80;;;5.10;;
76729;SDS011;65653;53.106;18.046;2023-06-26T02:51:19;12.70;;;5.90;;
76729;SDS011;65653;53.106;18.046;2023-06-26T02:53:46;8.30;;;5.20;;
76729;SDS011;65653;53.106;18.046;2023-06-26T02:56:12;9.10;;;4.60;;
76729;SDS011;65653;53.106;18.046;2023-06-26T02:58:39;6.90;;;4.50;;
76729;SDS011;65653;53.106;18.046;2023-06-26T03:01:05;8.10;;;4.60;;
76729;SDS011;65653;53.106;18.046;2023-06-26T03:03:32;9.00;;;4.40;;
76729;SDS011;65653;53.106;18.046;2023-06-26T03:06:06;10.40;;;4.80;;
76729;SDS011;65653;53.106;18.046;2023-06-26T03:08:37;10.00;;;5.30;;
76729;SDS011;65653;53.106;18.046;2023-06-26T03:11:05;8.50;;;5.20;;
76729;SDS011;65653;53.106;18.046;2023-06-26T03:13:33;7.40;;;4.50;;
76729;SDS011;65653;53.106;18.046;2023-06-26T03:16:01;7.90;;;4.80;;
76729;SDS011;65653;53.106;18.046;2023-06-26T03:18:28;7.40;;;5.10;;
76729;SDS011;65653;53.106;18.046;2023-06-26T03:20:55;6.80;;;4.70;;
76729;SDS011;65653;53.106;18.046;2023-06-26T03:23:23;8.30;;;4.60;;
76729;SDS011;65653;53.106;18.046;2023-06-26T03:25:50;6.10;;;4.50;;
76729;SDS011;65653;53.106;18.046;2023-06-26T03:28:18;9.60;;;5.80;;
76729;SDS011;65653;53.106;18.046;2023-06-26T03:30:44;7.70;;;4.90;;
76729;SDS011;65653;53.106;18.046;2023-06-26T03:33:11;6.80;;;3.90;;
76729;SDS011;65653;53.106;18.046;2023-06-26T03:35:37;7.80;;;3.30;;
76729;SDS011;65653;53.106;18.046;2023-06-26T03:38:04;6.90;;;4.40;;
76729;SDS011;65653;53.106;18.046;2023-06-26T03:40:31;7.50;;;4.90;;
76729;SDS011;65653;53.106;18.046;2023-06-26T03:42:58;8.10;;;5.00;;
76729;SDS011;65653;53.106;18.046;2023-06-26T03:45:24;9.30;;;5.00;;
76729;SDS011;65653;53.106;18.046;2023-06-26T03:47:51;8.30;;;5.40;;
76729;SDS011;65653;53.106;18.046;2023-06-26T03:50:18;8.60;;;5.30;;
76729;SDS011;65653;53.106;18.046;2023-06-26T03:52:45;9.30;;;5.40;;
76729;SDS011;65653;53.106;18.046;2023-06-26T03:55:11;13.40;;;5.40;;
76729;SDS011;65653;53.106;18.046;2023-06-26T03:57:38;8.40;;;4.90;;
76729;SDS011;65653;53.106;18.046;2023-06-26T04:00:05;7.20;;;4.70;;
76729;SDS011;65653;53.106;18.046;2023-06-26T04:02:34;8.40;;;5.60;;
76729;SDS011;65653;53.106;18.046;2023-06-26T04:05:01;5.30;;;3.90;;
76729;SDS011;65653;53.106;18.046;2023-06-26T04:07:30;6.40;;;4.80;;
76729;SDS011;65653;53.106;18.046;2023-06-26T04:09:57;8.50;;;4.80;;
76729;SDS011;65653;53.106;18.046;2023-06-26T04:12:24;8.30;;;4.80;;
76729;SDS011;65653;53.106;18.046;2023-06-26T04:14:51;9.60;;;5.40;;
76729;SDS011;65653;53.106;18.046;2023-06-26T04:17:17;7.90;;;5.10;;
76729;SDS011;65653;53.106;18.046;2023-06-26T04:19:44;11.70;;;5.10;;
76729;SDS011;65653;53.106;18.046;2023-06-26T04:22:10;7.70;;;5.30;;
76729;SDS011;65653;53.106;18.046;2023-06-26T04:24:38;10.10;;;5.30;;
76729;SDS011;65653;53.106;18.046;2023-06-26T04:27:04;7.60;;;4.20;;
76729;SDS011;65653;53.106;18.046;2023-06-26T04:29:32;9.30;;;5.70;;
76729;SDS011;65653;53.106;18.046;2023-06-26T04:31:58;9.40;;;5.80;;
76729;SDS011;65653;53.106;18.046;2023-06-26T04:34:25;8.40;;;6.30;;
76729;SDS011;65653;53.106;18.046;2023-06-26T04:36:53;7.00;;;5.00;;
76729;SDS011;65653;53.106;18.046;2023-06-26T04:39:20;10.40;;;6.50;;
76729;SDS011;65653;53.106;18.046;2023-06-26T04:41:47;9.90;;;6.00;;
76729;SDS011;65653;53.106;18.046;2023-06-26T04:44:13;8.30;;;6.00;;
76729;SDS011;65653;53.106;18.046;2023-06-26T04:46:40;11.60;;;6.00;;
76729;SDS011;65653;53.106;18.046;2023-06-26T04:49:10;9.30;;;5.60;;
76729;SDS011;65653;53.106;18.046;2023-06-26T04:51:36;9.90;;;5.80;;
76729;SDS011;65653;53.106;18.046;2023-06-26T04:54:07;8.00;;;5.50;;
76729;SDS011;65653;53.106;18.046;2023-06-26T04:56:34;9.80;;;5.30;;
76729;SDS011;65653;53.106;18.046;2023-06-26T04:59:01;9.40;;;5.10;;
76729;SDS011;65653;53.106;18.046;2023-06-26T05:01:29;9.70;;;5.90;;
76729;SDS011;65653;53.106;18.046;2023-06-26T05:03:56;8.90;;;6.00;;
76729;SDS011;65653;53.106;18.046;2023-06-26T05:06:22;7.10;;;5.10;;
76729;SDS011;65653;53.106;18.046;2023-06-26T05:08:49;8.20;;;5.40;;
76729;SDS011;65653;53.106;18.046;2023-06-26T05:11:16;10.70;;;5.50;;
76729;SDS011;65653;53.106;18.046;2023-06-26T05:13:43;9.10;;;5.90;;
76729;SDS011;65653;53.106;18.046;2023-06-26T05:16:10;9.40;;;6.40;;
76729;SDS011;65653;53.106;18.046;2023-06-26T05:18:36;9.70;;;6.20;;
76729;SDS011;65653;53.106;18.046;2023-06-26T05:21:03;9.50;;;6.20;;
76729;SDS011;65653;53.106;18.046;2023-06-26T05:23:30;8.20;;;4.80;;
76729;SDS011;65653;53.106;18.046;2023-06-26T05:25:58;6.20;;;4.90;;
76729;SDS011;65653;53.106;18.046;2023-06-26T05:28:25;9.80;;;6.10;;
76729;SDS011;65653;53.106;18.046;2023-06-26T05:30:54;9.60;;;5.60;;
76729;SDS011;65653;53.106;18.046;2023-06-26T05:33:21;8.30;;;5.20;;
76729;SDS011;65653;53.106;18.046;2023-06-26T05:35:53;7.40;;;5.00;;
76729;SDS011;65653;53.106;18.046;2023-06-26T05:38:21;8.50;;;4.70;;
76729;SDS011;65653;53.106;18.046;2023-06-26T05:40:48;8.20;;;4.90;;
76729;SDS011;65653;53.106;18.046;2023-06-26T05:43:14;11.30;;;5.30;;
76729;SDS011;65653;53.106;18.046;2023-06-26T05:45:41;8.60;;;5.00;;
76729;SDS011;65653;53.106;18.046;2023-06-26T05:48:08;7.90;;;4.40;;
76729;SDS011;65653;53.106;18.046;2023-06-26T05:50:35;7.30;;;4.80;;
76729;SDS011;65653;53.106;18.046;2023-06-26T05:53:02;9.40;;;4.80;;
76729;SDS011;65653;53.106;18.046;2023-06-26T05:55:29;8.40;;;4.60;;
76729;SDS011;65653;53.106;18.046;2023-06-26T05:57:57;7.90;;;4.80;;
76729;SDS011;65653;53.106;18.046;2023-06-26T06:00:26;10.90;;;4.40;;
76729;SDS011;65653;53.106;18.046;2023-06-26T06:02:53;7.70;;;4.70;;
76729;SDS011;65653;53.106;18.046;2023-06-26T06:05:21;11.40;;;6.10;;
76729;SDS011;65653;53.106;18.046;2023-06-26T06:07:49;10.20;;;5.50;;
76729;SDS011;65653;53.106;18.046;2023-06-26T06:10:16;7.70;;;4.20;;
76729;SDS011;65653;53.106;18.046;2023-06-26T06:12:43;8.80;;;5.40;;
76729;SDS011;65653;53.106;18.046;2023-06-26T06:15:09;8.90;;;5.20;;
76729;SDS011;65653;53.106;18.046;2023-06-26T06:17:36;12.00;;;5.40;;
76729;SDS011;65653;53.106;18.046;2023-06-26T06:20:03;11.10;;;5.20;;
76729;SDS011;65653;53.106;18.046;2023-06-26T06:22:30;7.50;;;5.20;;
76729;SDS011;65653;53.106;18.046;2023-06-26T06:25:09;10.70;;;5.40;;
76729;SDS011;65653;53.106;18.046;2023-06-26T06:31:00;8.60;;;4.20;;
76729;SDS011;65653;53.106;18.046;2023-06-26T06:33:35;11.20;;;5.10;;
76729;SDS011;65653;53.106;18.046;2023-06-26T06:36:02;8.30;;;5.90;;
76729;SDS011;65653;53.106;18.046;2023-06-26T06:38:28;10.50;;;5.00;;
76729;SDS011;65653;53.106;18.046;2023-06-26T06:40:55;13.00;;;4.80;;
76729;SDS011;65653;53.106;18.046;2023-06-26T06:43:22;5.20;;;4.10;;
76729;SDS011;65653;53.106;18.046;2023-06-26T06:45:50;4.50;;;3.20;;
76729;SDS011;65653;53.106;18.046;2023-06-26T06:48:16;4.90;;;3.40;;
76729;SDS011;65653;53.106;18.046;2023-06-26T06:50:43;4.10;;;3.50;;
76729;SDS011;65653;53.106;18.046;2023-06-26T06:53:09;5.80;;;3.70;;
76729;SDS011;65653;53.106;18.046;2023-06-26T06:55:36;7.10;;;5.40;;
76729;SDS011;65653;53.106;18.046;2023-06-26T06:58:03;6.50;;;5.30;;
76729;SDS011;65653;53.106;18.046;2023-06-26T07:00:29;6.60;;;4.50;;
76729;SDS011;65653;53.106;18.046;2023-06-26T07:02:58;8.10;;;5.40;;
76729;SDS011;65653;53.106;18.046;2023-06-26T07:05:26;4.90;;;3.60;;
76729;SDS011;65653;53.106;18.046;2023-06-26T07:07:53;7.10;;;5.00;;
76729;SDS011;65653;53.106;18.046;2023-06-26T07:10:19;11.30;;;8.40;;
76729;SDS011;65653;53.106;18.046;2023-06-26T07:12:46;9.30;;;7.20;;
76729;SDS011;65653;53.106;18.046;2023-06-26T07:15:13;7.30;;;5.50;;
76729;SDS011;65653;53.106;18.046;2023-06-26T07:17:39;9.50;;;4.50;;
76729;SDS011;65653;53.106;18.046;2023-06-26T07:20:06;8.20;;;4.60;;
76729;SDS011;65653;53.106;18.046;2023-06-26T07:22:34;5.50;;;4.30;;
76729;SDS011;65653;53.106;18.046;2023-06-26T07:25:02;8.10;;;6.60;;
76729;SDS011;65653;53.106;18.046;2023-06-26T07:27:30;6.10;;;4.60;;
76729;SDS011;65653;53.106;18.046;2023-06-26T07:29:57;12.60;;;9.40;;
76729;SDS011;65653;53.106;18.046;2023-06-26T07:32:24;7.40;;;5.00;;
76729;SDS011;65653;53.106;18.046;2023-06-26T07:34:50;7.20;;;5.10;;
76729;SDS011;65653;53.106;18.046;2023-06-26T07:37:17;7.40;;;4.30;;
76729;SDS011;65653;53.106;18.046;2023-06-26T07:39:44;8.00;;;4.70;;
76729;SDS011;65653;53.106;18.046;2023-06-26T07:42:11;7.30;;;3.90;;
76729;SDS011;65653;53.106;18.046;2023-06-26T07:44:38;6.40;;;4.10;;
76729;SDS011;65653;53.106;18.046;2023-06-26T07:47:04;4.80;;;4.30;;
76729;SDS011;65653;53.106;18.046;2023-06-26T07:49:31;6.70;;;4.40;;
76729;SDS011;65653;53.106;18.046;2023-06-26T07:51:58;7.20;;;4.80;;
76729;SDS011;65653;53.106;18.046;2023-06-26T07:54:24;4.50;;;3.30;;
76729;SDS011;65653;53.106;18.046;2023-06-26T07:59:23;4.50;;;3.70;;
76729;SDS011;65653;53.106;18.046;2023-06-26T08:01:51;4.90;;;4.40;;
76729;SDS011;65653;53.106;18.046;2023-06-26T08:04:20;5.50;;;4.20;;
76729;SDS011;65653;53.106;18.046;2023-06-26T08:06:48;4.80;;;3.80;;
76729;SDS011;65653;53.106;18.046;2023-06-26T08:09:16;5.40;;;4.10;;
76729;SDS011;65653;53.106;18.046;2023-06-26T08:11:45;4.60;;;3.50;;
76729;SDS011;65653;53.106;18.046;2023-06-26T08:14:12;7.10;;;3.90;;
76729;SDS011;65653;53.106;18.046;2023-06-26T08:16:39;5.40;;;3.20;;
76729;SDS011;65653;53.106;18.046;2023-06-26T08:19:07;4.90;;;3.30;;
76729;SDS011;65653;53.106;18.046;2023-06-26T08:21:33;6.20;;;3.80;;
76729;SDS011;65653;53.106;18.046;2023-06-26T08:24:00;6.30;;;4.00;;
76729;SDS011;65653;53.106;18.046;2023-06-26T08:26:27;4.10;;;2.70;;
76729;SDS011;65653;53.106;18.046;2023-06-26T08:28:54;5.10;;;3.30;;
76729;SDS011;65653;53.106;18.046;2023-06-26T08:31:21;4.60;;;3.30;;
76729;SDS011;65653;53.106;18.046;2023-06-26T08:33:48;4.70;;;3.20;;
76729;SDS011;65653;53.106;18.046;2023-06-26T08:36:14;3.10;;;2.80;;
76729;SDS011;65653;53.106;18.046;2023-06-26T08:38:41;5.50;;;3.80;;
76729;SDS011;65653;53.106;18.046;2023-06-26T08:41:07;4.10;;;3.30;;
76729;SDS011;65653;53.106;18.046;2023-06-26T08:43:35;4.10;;;3.20;;
76729;SDS011;65653;53.106;18.046;2023-06-26T08:46:02;6.40;;;3.60;;
76729;SDS011;65653;53.106;18.046;2023-06-26T08:48:29;3.70;;;3.00;;
76729;SDS011;65653;53.106;18.046;2023-06-26T08:51:01;4.00;;;3.00;;
76729;SDS011;65653;53.106;18.046;2023-06-26T08:53:56;4.70;;;3.30;;
76729;SDS011;65653;53.106;18.046;2023-06-26T08:56:24;5.10;;;3.30;;
76729;SDS011;65653;53.106;18.046;2023-06-26T08:58:54;6.00;;;3.20;;
76729;SDS011;65653;53.106;18.046;2023-06-26T09:01:21;4.80;;;3.50;;
76729;SDS011;65653;53.106;18.046;2023-06-26T09:03:48;5.50;;;3.80;;
76729;SDS011;65653;53.106;18.046;2023-06-26T09:06:14;3.90;;;2.70;;
76729;SDS011;65653;53.106;18.046;2023-06-26T09:08:41;3.80;;;3.00;;
76729;SDS011;65653;53.106;18.046;2023-06-26T09:11:08;5.00;;;2.80;;
76729;SDS011;65653;53.106;18.046;2023-06-26T09:13:34;3.70;;;3.10;;
76729;SDS011;65653;53.106;18.046;2023-06-26T09:16:04;3.70;;;3.20;;
76729;SDS011;65653;53.106;18.046;2023-06-26T09:18:37;4.90;;;3.60;;
76729;SDS011;65653;53.106;18.046;2023-06-26T09:21:07;4.00;;;2.70;;
76729;SDS011;65653;53.106;18.046;2023-06-26T09:23:35;4.60;;;3.60;;
76729;SDS011;65653;53.106;18.046;2023-06-26T09:26:03;4.90;;;3.20;;
76729;SDS011;65653;53.106;18.046;2023-06-26T09:28:34;3.90;;;3.20;;
76729;SDS011;65653;53.106;18.046;2023-06-26T09:31:02;3.60;;;3.10;;
76729;SDS011;65653;53.106;18.046;2023-06-26T09:33:33;3.60;;;3.00;;
76729;SDS011;65653;53.106;18.046;2023-06-26T09:36:07;3.70;;;2.90;;
76729;SDS011;65653;53.106;18.046;2023-06-26T09:38:38;5.00;;;3.30;;
76729;SDS011;65653;53.106;18.046;2023-06-26T09:41:04;3.70;;;2.80;;
76729;SDS011;65653;53.106;18.046;2023-06-26T09:43:31;4.30;;;3.00;;
76729;SDS011;65653;53.106;18.046;2023-06-26T09:45:58;4.00;;;3.00;;
76729;SDS011;65653;53.106;18.046;2023-06-26T09:48:27;4.90;;;2.90;;
76729;SDS011;65653;53.106;18.046;2023-06-26T09:50:54;3.40;;;3.00;;
76729;SDS011;65653;53.106;18.046;2023-06-26T09:53:21;3.50;;;3.10;;
76729;SDS011;65653;53.106;18.046;2023-06-26T09:55:48;2.90;;;2.70;;
76729;SDS011;65653;53.106;18.046;2023-06-26T09:58:16;4.40;;;2.90;;
76729;SDS011;65653;53.106;18.046;2023-06-26T10:00:44;3.20;;;2.90;;
76729;SDS011;65653;53.106;18.046;2023-06-26T10:03:10;5.80;;;2.90;;
76729;SDS011;65653;53.106;18.046;2023-06-26T10:05:40;4.70;;;3.20;;
76729;SDS011;65653;53.106;18.046;2023-06-26T10:08:07;4.60;;;2.30;;
76729;SDS011;65653;53.106;18.046;2023-06-26T10:10:37;4.20;;;3.20;;
76729;SDS011;65653;53.106;18.046;2023-06-26T10:13:07;3.50;;;2.50;;
76729;SDS011;65653;53.106;18.046;2023-06-26T10:15:39;5.40;;;2.80;;
76729;SDS011;65653;53.106;18.046;2023-06-26T10:18:08;3.10;;;2.90;;
76729;SDS011;65653;53.106;18.046;2023-06-26T10:20:36;5.80;;;2.80;;
76729;SDS011;65653;53.106;18.046;2023-06-26T10:23:02;2.60;;;2.40;;
76729;SDS011;65653;53.106;18.046;2023-06-26T10:25:34;6.00;;;2.90;;
76729;SDS011;65653;53.106;18.046;2023-06-26T10:28:04;3.10;;;2.60;;
76729;SDS011;65653;53.106;18.046;2023-06-26T10:30:34;5.10;;;3.30;;
76729;SDS011;65653;53.106;18.046;2023-06-26T10:33:03;4.00;;;2.90;;
76729;SDS011;65653;53.106;18.046;2023-06-26T10:35:32;3.90;;;2.90;;
76729;SDS011;65653;53.106;18.046;2023-06-26T10:38:02;4.50;;;3.00;;
76729;SDS011;65653;53.106;18.046;2023-06-26T10:40:39;5.80;;;3.00;;
76729;SDS011;65653;53.106;18.046;2023-06-26T10:43:08;3.80;;;2.80;;
76729;SDS011;65653;53.106;18.046;2023-06-26T10:45:36;6.30;;;3.00;;
76729;SDS011;65653;53.106;18.046;2023-06-26T10:48:03;4.10;;;3.60;;
76729;SDS011;65653;53.106;18.046;2023-06-26T10:50:33;5.80;;;3.10;;
76729;SDS011;65653;53.106;18.046;2023-06-26T10:53:07;3.60;;;3.20;;
76729;SDS011;65653;53.106;18.046;2023-06-26T10:55:34;5.30;;;3.10;;
76729;SDS011;65653;53.106;18.046;2023-06-26T10:58:02;3.60;;;3.30;;
76729;SDS011;65653;53.106;18.046;2023-06-26T11:00:29;4.40;;;3.10;;
76729;SDS011;65653;53.106;18.046;2023-06-26T11:02:55;3.70;;;3.00;;
76729;SDS011;65653;53.106;18.046;2023-06-26T11:05:29;6.40;;;3.80;;
76729;SDS011;65653;53.106;18.046;2023-06-26T11:08:05;3.80;;;3.40;;
76729;SDS011;65653;53.106;18.046;2023-06-26T11:10:52;4.10;;;3.10;;
76729;SDS011;65653;53.106;18.046;2023-06-26T11:13:20;4.00;;;3.70;;
76729;SDS011;65653;53.106;18.046;2023-06-26T11:15:47;4.00;;;3.60;;
76729;SDS011;65653;53.106;18.046;2023-06-26T11:18:15;4.70;;;3.90;;
76729;SDS011;65653;53.106;18.046;2023-06-26T11:20:42;4.10;;;3.50;;
76729;SDS011;65653;53.106;18.046;2023-06-26T11:23:09;4.10;;;3.60;;
76729;SDS011;65653;53.106;18.046;2023-06-26T11:25:36;3.90;;;3.10;;
76729;SDS011;65653;53.106;18.046;2023-06-26T11:28:04;5.00;;;3.20;;
76729;SDS011;65653;53.106;18.046;2023-06-26T11:30:31;3.90;;;3.10;;
76729;SDS011;65653;53.106;18.046;2023-06-26T11:33:05;4.80;;;3.90;;
76729;SDS011;65653;53.106;18.046;2023-06-26T11:35:33;4.60;;;3.40;;
76729;SDS011;65653;53.106;18.046;2023-06-26T11:38:00;3.90;;;3.60;;
76729;SDS011;65653;53.106;18.046;2023-06-26T11:40:33;3.90;;;3.10;;
76729;SDS011;65653;53.106;18.046;2023-06-26T11:43:01;3.90;;;3.30;;
76729;SDS011;65653;53.106;18.046;2023-06-26T11:45:30;5.30;;;3.60;;
76729;SDS011;65653;53.106;18.046;2023-06-26T11:48:00;4.90;;;3.70;;
76729;SDS011;65653;53.106;18.046;2023-06-26T11:50:27;5.50;;;3.70;;
76729;SDS011;65653;53.106;18.046;2023-06-26T11:52:54;7.30;;;3.60;;
76729;SDS011;65653;53.106;18.046;2023-06-26T11:55:22;4.70;;;3.40;;
76729;SDS011;65653;53.106;18.046;2023-06-26T11:57:50;3.70;;;3.30;;
76729;SDS011;65653;53.106;18.046;2023-06-26T12:00:19;4.00;;;3.00;;
76729;SDS011;65653;53.106;18.046;2023-06-26T12:02:47;4.80;;;2.90;;
76729;SDS011;65653;53.106;18.046;2023-06-26T12:05:14;3.50;;;3.00;;
76729;SDS011;65653;53.106;18.046;2023-06-26T12:07:42;4.20;;;3.00;;
76729;SDS011;65653;53.106;18.046;2023-06-26T12:10:10;3.70;;;3.20;;
76729;SDS011;65653;53.106;18.046;2023-06-26T12:12:38;3.40;;;3.10;;
76729;SDS011;65653;53.106;18.046;2023-06-26T12:15:06;3.00;;;2.80;;
76729;SDS011;65653;53.106;18.046;2023-06-26T12:17:33;3.60;;;3.30;;
76729;SDS011;65653;53.106;18.046;2023-06-26T12:20:05;3.40;;;3.10;;
76729;SDS011;65653;53.106;18.046;2023-06-26T12:22:45;3.60;;;3.20;;
76729;SDS011;65653;53.106;18.046;2023-06-26T12:25:13;4.00;;;2.60;;
76729;SDS011;65653;53.106;18.046;2023-06-26T12:27:40;2.90;;;2.70;;
76729;SDS011;65653;53.106;18.046;2023-06-26T12:30:07;2.90;;;2.70;;
76729;SDS011;65653;53.106;18.046;2023-06-26T12:32:34;3.60;;;2.90;;
76729;SDS011;65653;53.106;18.046;2023-06-26T12:35:01;4.40;;;2.70;;
76729;SDS011;65653;53.106;18.046;2023-06-26T12:37:28;2.90;;;2.60;;
76729;SDS011;65653;53.106;18.046;2023-06-26T12:39:55;3.70;;;3.10;;
76729;SDS011;65653;53.106;18.046;2023-06-26T12:42:27;4.30;;;2.90;;
76729;SDS011;65653;53.106;18.046;2023-06-26T12:44:55;3.10;;;2.90;;
76729;SDS011;65653;53.106;18.046;2023-06-26T12:47:25;4.30;;;2.90;;
76729;SDS011;65653;53.106;18.046;2023-06-26T12:49:53;4.60;;;3.10;;
76729;SDS011;65653;53.106;18.046;2023-06-26T12:52:20;3.60;;;2.70;;
76729;SDS011;65653;53.106;18.046;2023-06-26T12:54:51;4.00;;;3.00;;
76729;SDS011;65653;53.106;18.046;2023-06-26T12:57:18;3.90;;;3.00;;
76729;SDS011;65653;53.106;18.046;2023-06-26T12:59:45;4.30;;;3.10;;
76729;SDS011;65653;53.106;18.046;2023-06-26T13:02:11;3.10;;;2.80;;
76729;SDS011;65653;53.106;18.046;2023-06-26T13:04:38;2.90;;;2.60;;
76729;SDS011;65653;53.106;18.046;2023-06-26T13:09:34;4.90;;;3.00;;
76729;SDS011;65653;53.106;18.046;2023-06-26T13:12:01;3.40;;;2.90;;
76729;SDS011;65653;53.106;18.046;2023-06-26T13:14:30;2.80;;;2.60;;
76729;SDS011;65653;53.106;18.046;2023-06-26T13:16:57;5.30;;;3.10;;
76729;SDS011;65653;53.106;18.046;2023-06-26T13:19:24;3.40;;;2.90;;
76729;SDS011;65653;53.106;18.046;2023-06-26T13:21:50;3.00;;;2.70;;
76729;SDS011;65653;53.106;18.046;2023-06-26T13:24:17;3.90;;;3.00;;
76729;SDS011;65653;53.106;18.046;2023-06-26T13:26:43;5.50;;;2.80;;
76729;SDS011;65653;53.106;18.046;2023-06-26T13:29:10;2.80;;;2.60;;
76729;SDS011;65653;53.106;18.046;2023-06-26T13:31:37;2.70;;;2.40;;
76729;SDS011;65653;53.106;18.046;2023-06-26T13:34:05;2.50;;;2.30;;
76729;SDS011;65653;53.106;18.046;2023-06-26T13:36:31;2.50;;;2.30;;
76729;SDS011;65653;53.106;18.046;2023-06-26T13:39:00;2.60;;;2.40;;
76729;SDS011;65653;53.106;18.046;2023-06-26T13:41:27;3.30;;;2.60;;
76729;SDS011;65653;53.106;18.046;2023-06-26T13:43:55;2.40;;;2.20;;
76729;SDS011;65653;53.106;18.046;2023-06-26T13:46:21;3.20;;;2.60;;
76729;SDS011;65653;53.106;18.046;2023-06-26T13:48:48;2.70;;;2.50;;
76729;SDS011;65653;53.106;18.046;2023-06-26T13:51:14;3.70;;;2.60;;
76729;SDS011;65653;53.106;18.046;2023-06-26T13:53:41;2.90;;;2.20;;
76729;SDS011;65653;53.106;18.046;2023-06-26T13:56:07;3.20;;;2.30;;
76729;SDS011;65653;53.106;18.046;2023-06-26T13:58:34;2.80;;;2.60;;
76729;SDS011;65653;53.106;18.046;2023-06-26T14:01:02;3.30;;;3.00;;
76729;SDS011;65653;53.106;18.046;2023-06-26T14:03:30;2.50;;;2.30;;
76729;SDS011;65653;53.106;18.046;2023-06-26T14:05:56;2.60;;;2.40;;
76729;SDS011;65653;53.106;18.046;2023-06-26T14:08:23;2.70;;;2.50;;
76729;SDS011;65653;53.106;18.046;2023-06-26T14:10:49;3.90;;;2.60;;
76729;SDS011;65653;53.106;18.046;2023-06-26T14:13:16;3.70;;;2.40;;
76729;SDS011;65653;53.106;18.046;2023-06-26T14:15:43;3.00;;;2.70;;
76729;SDS011;65653;53.106;18.046;2023-06-26T14:18:09;2.70;;;2.20;;
76729;SDS011;65653;53.106;18.046;2023-06-26T14:20:36;2.30;;;2.10;;
76729;SDS011;65653;53.106;18.046;2023-06-26T14:23:03;2.40;;;2.20;;
76729;SDS011;65653;53.106;18.046;2023-06-26T14:25:30;2.50;;;2.30;;
76729;SDS011;65653;53.106;18.046;2023-06-26T14:27:57;2.80;;;2.60;;
76729;SDS011;65653;53.106;18.046;2023-06-26T14:30:25;2.90;;;2.70;;
76729;SDS011;65653;53.106;18.046;2023-06-26T14:32:52;2.90;;;2.70;;
76729;SDS011;65653;53.106;18.046;2023-06-26T14:35:19;2.90;;;2.60;;
76729;SDS011;65653;53.106;18.046;2023-06-26T14:37:49;2.80;;;2.50;;
76729;SDS011;65653;53.106;18.046;2023-06-26T14:40:16;2.30;;;2.10;;
76729;SDS011;65653;53.106;18.046;2023-06-26T14:42:43;2.70;;;2.50;;
76729;SDS011;65653;53.106;18.046;2023-06-26T14:45:10;2.90;;;2.70;;
76729;SDS011;65653;53.106;18.046;2023-06-26T14:47:37;3.70;;;2.60;;
76729;SDS011;65653;53.106;18.046;2023-06-26T14:50:04;2.20;;;2.00;;
76729;SDS011;65653;53.106;18.046;2023-06-26T14:52:31;2.90;;;2.40;;